createdAt,value
2022-09-21T00:01:43.059Z,4.70
2022-09-21T00:04:10.650Z,4.70
2022-09-21T00:06:37.397Z,4.70
2022-09-21T00:09:05.307Z,4.60
2022-09-21T00:11:33.346Z,4.60
2022-09-21T00:14:02.853Z,4.60
2022-09-21T00:16:29.698Z,4.60
2022-09-21T00:18:56.320Z,4.50
2022-09-21T00:21:23.141Z,4.50
2022-09-21T00:23:49.917Z,4.50
2022-09-21T00:26:17.935Z,4.50
2022-09-21T00:28:45.164Z,4.50
2022-09-21T00:31:13.699Z,4.50
2022-09-21T00:33:40.967Z,4.40
2022-09-21T00:36:09.048Z,4.40
2022-09-21T00:38:36.430Z,4.30
2022-09-21T00:41:03.605Z,4.30
2022-09-21T00:43:30.231Z,4.40
2022-09-21T00:46:01.863Z,4.30
2022-09-21T00:48:29.111Z,4.20
2022-09-21T00:50:57.128Z,4.30
2022-09-21T00:53:23.750Z,4.30
2022-09-21T00:55:54.072Z,4.20
2022-09-21T00:58:24.169Z,4.20
2022-09-21T01:00:50.837Z,4.10
2022-09-21T01:03:17.603Z,4.20
2022-09-21T01:05:44.165Z,4.20
2022-09-21T01:08:13.092Z,4.10
2022-09-21T01:10:54.857Z,4.20
2022-09-21T01:13:39.720Z,4.10
2022-09-21T01:16:15.835Z,4.10
2022-09-21T01:18:47.616Z,4.00
2022-09-21T01:21:14.181Z,4.00
2022-09-21T01:23:59.624Z,3.90
2022-09-21T01:26:29.288Z,3.90
2022-09-21T01:29:02.141Z,3.90
2022-09-21T01:31:32.972Z,4.00
2022-09-21T01:34:03.222Z,3.80
2022-09-21T01:36:31.123Z,3.80
2022-09-21T01:39:00.670Z,3.80
2022-09-21T01:41:28.775Z,3.80
2022-09-21T01:43:58.603Z,3.80
2022-09-21T01:46:27.162Z,3.70
2022-09-21T01:48:56.674Z,3.70
2022-09-21T01:51:25.272Z,3.60
2022-09-21T01:53:56.821Z,3.60
2022-09-21T01:56:38.030Z,3.60
2022-09-21T01:59:07.396Z,3.70
2022-09-21T02:01:37.637Z,3.60
2022-09-21T02:04:06.126Z,3.50
2022-09-21T02:06:32.918Z,3.60
2022-09-21T02:08:59.586Z,3.60
2022-09-21T02:11:26.391Z,3.50
2022-09-21T02:13:54.065Z,3.50
2022-09-21T02:16:21.239Z,3.50
2022-09-21T02:19:04.187Z,3.40
2022-09-21T02:21:33.121Z,3.50
2022-09-21T02:24:08.522Z,3.50
2022-09-21T02:26:40.415Z,3.50
2022-09-21T02:29:07.237Z,3.40
2022-09-21T02:31:41.999Z,3.40
2022-09-21T02:34:24.600Z,3.40
2022-09-21T02:36:56.863Z,3.40
2022-09-21T02:39:39.290Z,3.40
2022-09-21T02:42:11.520Z,3.30
2022-09-21T02:44:45.708Z,3.30
2022-09-21T02:47:13.043Z,3.30
2022-09-21T02:49:45.726Z,3.30
2022-09-21T02:52:14.335Z,3.20
2022-09-21T02:54:43.243Z,3.20
2022-09-21T02:57:10.866Z,3.20
2022-09-21T02:59:37.551Z,3.20
2022-09-21T03:02:05.534Z,3.10
2022-09-21T03:04:32.313Z,3.10
2022-09-21T03:06:59.075Z,3.10
2022-09-21T03:09:25.745Z,3.10
2022-09-21T03:11:52.374Z,3.00
2022-09-21T03:14:19.481Z,3.00
2022-09-21T03:16:46.206Z,3.00
2022-09-21T03:19:12.864Z,3.00
2022-09-21T03:21:44.308Z,3.00
2022-09-21T03:24:11.299Z,2.90
2022-09-21T03:26:37.889Z,3.00
2022-09-21T03:29:04.975Z,3.00
2022-09-21T03:31:32.310Z,3.00
2022-09-21T03:33:59.363Z,3.00
2022-09-21T03:36:26.038Z,2.90
2022-09-21T03:38:52.677Z,2.90
2022-09-21T03:41:19.427Z,2.90
2022-09-21T03:43:46.050Z,2.90
2022-09-21T03:46:12.773Z,2.90
2022-09-21T03:48:42.417Z,2.80
2022-09-21T03:51:09.059Z,2.80
2022-09-21T03:53:35.905Z,2.90
2022-09-21T03:56:02.594Z,2.80
2022-09-21T03:58:29.242Z,2.70
2022-09-21T04:01:00.966Z,2.70
2022-09-21T04:03:27.587Z,2.80
2022-09-21T04:05:54.208Z,2.70
2022-09-21T04:08:20.934Z,2.70
2022-09-21T04:10:47.551Z,2.70
2022-09-21T04:13:14.290Z,2.70
2022-09-21T04:15:41.823Z,2.70
2022-09-21T04:18:08.612Z,2.70
2022-09-21T04:20:35.228Z,2.70
2022-09-21T04:23:01.844Z,2.70
2022-09-21T04:25:28.731Z,2.70
2022-09-21T04:27:55.608Z,2.70
2022-09-21T04:30:22.204Z,2.70
2022-09-21T04:32:48.909Z,2.60
2022-09-21T04:35:15.640Z,2.60
2022-09-21T04:37:42.369Z,2.60
2022-09-21T04:40:09.485Z,2.60
2022-09-21T04:42:36.289Z,2.60
2022-09-21T04:45:03.121Z,2.70
2022-09-21T04:47:30.814Z,2.60
2022-09-21T04:49:57.690Z,2.60
2022-09-21T04:52:24.326Z,2.60
2022-09-21T04:54:51.104Z,2.50
2022-09-21T04:57:17.777Z,2.60
2022-09-21T04:59:44.428Z,2.50
2022-09-21T05:02:11.395Z,2.60
2022-09-21T05:04:38.106Z,2.60
2022-09-21T05:07:04.831Z,2.60
2022-09-21T05:09:49.984Z,2.60
2022-09-21T05:12:16.622Z,2.60
2022-09-21T05:14:44.851Z,2.50
2022-09-21T05:17:11.956Z,2.50
2022-09-21T05:19:38.625Z,2.60
2022-09-21T05:22:05.214Z,2.60
2022-09-21T05:24:31.881Z,2.80
2022-09-21T05:26:58.612Z,2.70
2022-09-21T05:29:25.464Z,2.80
2022-09-21T05:31:54.866Z,2.90
2022-09-21T05:34:35.591Z,3.00
2022-09-21T05:37:09.357Z,3.00
2022-09-21T05:39:36.122Z,3.10
2022-09-21T05:42:02.814Z,3.20
2022-09-21T05:44:29.626Z,3.50
2022-09-21T05:47:04.616Z,5.00
2022-09-21T05:49:40.305Z,6.60
2022-09-21T05:52:09.915Z,7.30
2022-09-21T05:54:36.502Z,7.40
2022-09-21T05:57:18.648Z,8.80
2022-09-21T05:59:59.413Z,10.40
2022-09-21T06:02:26.054Z,12.40
2022-09-21T06:04:54.288Z,14.10
2022-09-21T06:07:20.956Z,15.30
2022-09-21T06:09:47.564Z,15.70
2022-09-21T06:12:14.251Z,16.90
2022-09-21T06:14:40.925Z,17.70
2022-09-21T06:17:07.565Z,18.60
2022-09-21T06:19:34.208Z,19.10
2022-09-21T06:22:00.906Z,19.10
2022-09-21T06:24:27.548Z,19.60
2022-09-21T06:26:54.147Z,19.90
2022-09-21T06:29:23.545Z,20.40
2022-09-21T06:31:51.300Z,20.70
2022-09-21T06:34:18.210Z,20.70
2022-09-21T06:36:45.632Z,21.50
2022-09-21T06:39:12.393Z,21.20
2022-09-21T06:41:39.228Z,21.20
2022-09-21T06:44:05.928Z,22.20
2022-09-21T06:46:32.679Z,22.50
2022-09-21T06:48:59.347Z,22.90
2022-09-21T06:51:26.054Z,23.40
2022-09-21T06:53:56.657Z,23.30
2022-09-21T06:56:23.662Z,23.20
2022-09-21T06:58:50.353Z,22.60
2022-09-21T07:01:17.069Z,22.40
2022-09-21T07:03:43.921Z,22.60
2022-09-21T07:06:11.873Z,23.20
2022-09-21T07:11:27.466Z,24.00
2022-09-21T07:13:54.250Z,24.20
2022-09-21T07:16:21.570Z,24.20
2022-09-21T07:18:48.991Z,24.40
2022-09-21T07:21:16.233Z,24.70
2022-09-21T07:23:42.851Z,25.60
2022-09-21T07:26:10.917Z,26.10
2022-09-21T07:28:37.909Z,26.00
2022-09-21T07:31:08.080Z,25.70
2022-09-21T07:33:36.131Z,25.90
2022-09-21T07:36:09.894Z,25.70
2022-09-21T07:38:39.839Z,25.90
2022-09-21T07:41:07.255Z,26.00
2022-09-21T07:43:34.741Z,25.70
2022-09-21T07:46:04.170Z,26.20
2022-09-21T07:48:31.173Z,25.90
2022-09-21T07:51:06.135Z,26.20
2022-09-21T07:53:33.557Z,26.20
2022-09-21T07:56:04.155Z,26.20
2022-09-21T07:59:00.517Z,26.00
2022-09-21T08:01:27.399Z,26.80
2022-09-21T08:03:55.176Z,27.00
2022-09-21T08:06:22.873Z,25.80
2022-09-21T08:08:53.859Z,25.20
2022-09-21T08:11:23.707Z,26.10
2022-09-21T08:13:54.214Z,26.30
2022-09-21T08:16:21.327Z,25.70
2022-09-21T08:18:48.009Z,25.60
2022-09-21T08:21:14.639Z,26.10
2022-09-21T08:23:42.684Z,27.00
2022-09-21T08:26:19.477Z,27.60
2022-09-21T08:28:49.182Z,28.20
2022-09-21T08:31:17.127Z,27.50
2022-09-21T08:33:43.826Z,26.90
2022-09-21T08:36:10.688Z,26.50
2022-09-21T08:38:38.585Z,26.90
2022-09-21T08:41:14.166Z,26.80
2022-09-21T08:43:42.880Z,27.00
2022-09-21T08:46:12.869Z,26.50
2022-09-21T08:48:41.956Z,26.30
2022-09-21T08:51:10.879Z,26.20
2022-09-21T08:53:59.713Z,26.80
2022-09-21T08:56:37.048Z,27.60
2022-09-21T08:59:15.692Z,27.70
2022-09-21T09:01:51.249Z,26.90
2022-09-21T09:04:31.244Z,25.60
2022-09-21T09:06:57.954Z,26.60
2022-09-21T09:09:39.295Z,26.10
2022-09-21T09:12:21.797Z,27.10
2022-09-21T09:15:20.850Z,27.00
2022-09-21T09:17:50.836Z,26.10
2022-09-21T09:20:17.395Z,26.60
2022-09-21T09:22:47.289Z,25.20
2022-09-21T09:25:24.491Z,25.90
2022-09-21T09:27:54.470Z,25.90
2022-09-21T09:30:23.646Z,25.40
2022-09-21T09:33:06.391Z,25.40
2022-09-21T09:35:35.980Z,26.10
2022-09-21T09:38:05.979Z,23.40
2022-09-21T09:40:55.916Z,21.60
2022-09-21T09:43:30.501Z,20.90
2022-09-21T09:46:15.380Z,19.50
2022-09-21T09:48:42.124Z,18.80
2022-09-21T09:51:12.777Z,18.60
2022-09-21T09:53:40.451Z,18.60
2022-09-21T09:56:10.475Z,18.20
2022-09-21T09:58:55.692Z,19.00
2022-09-21T10:01:43.147Z,20.10
2022-09-21T10:04:11.609Z,21.70
2022-09-21T10:06:43.728Z,22.90
2022-09-21T10:09:19.227Z,23.80
2022-09-21T10:11:46.473Z,23.20
2022-09-21T10:14:18.198Z,22.00
2022-09-21T10:16:45.072Z,22.00
2022-09-21T10:19:15.269Z,22.70
2022-09-21T10:21:51.860Z,21.60
2022-09-21T10:24:22.235Z,19.60
2022-09-21T10:26:50.446Z,19.10
2022-09-21T10:29:21.796Z,20.10
2022-09-21T10:32:00.721Z,20.90
2022-09-21T10:34:28.996Z,19.90
2022-09-21T10:36:56.644Z,19.60
2022-09-21T10:39:23.289Z,21.00
2022-09-21T10:41:49.908Z,21.70
2022-09-21T10:44:18.136Z,21.00
2022-09-21T10:46:45.303Z,21.70
2022-09-21T10:49:23.321Z,21.40
2022-09-21T10:51:51.394Z,21.90
2022-09-21T10:54:21.536Z,21.00
2022-09-21T10:56:55.952Z,21.60
2022-09-21T10:59:24.736Z,21.10
2022-09-21T11:01:53.056Z,20.60
2022-09-21T11:04:19.882Z,20.80
2022-09-21T11:06:57.138Z,20.90
2022-09-21T11:09:26.596Z,21.10
2022-09-21T11:12:17.044Z,20.70
2022-09-21T11:14:49.046Z,20.30
2022-09-21T11:17:34.225Z,20.40
2022-09-21T11:20:07.023Z,19.50
2022-09-21T11:22:40.504Z,19.10
2022-09-21T11:25:11.071Z,18.60
2022-09-21T11:27:40.144Z,18.10
2022-09-21T11:30:10.878Z,18.10
2022-09-21T11:32:44.822Z,18.60
2022-09-21T11:35:15.229Z,18.50
2022-09-21T11:37:50.908Z,18.40
2022-09-21T11:40:36.080Z,18.10
2022-09-21T11:43:29.636Z,18.30
2022-09-21T11:46:00.910Z,18.00
2022-09-21T11:48:47.913Z,17.60
2022-09-21T11:51:38.271Z,17.50
2022-09-21T11:54:15.271Z,18.00
2022-09-21T11:56:43.714Z,18.20
2022-09-21T11:59:13.435Z,18.10
2022-09-21T12:02:03.114Z,18.10
2022-09-21T12:04:50.053Z,18.60
2022-09-21T12:07:23.321Z,18.40
2022-09-21T12:09:57.388Z,18.30
2022-09-21T12:12:24.004Z,18.50
2022-09-21T12:14:59.664Z,18.50
2022-09-21T12:17:42.182Z,18.40
2022-09-21T12:20:11.546Z,18.30
2022-09-21T12:22:42.769Z,18.10
2022-09-21T12:25:18.608Z,17.90
2022-09-21T12:27:49.039Z,18.00
2022-09-21T12:30:17.593Z,18.00
2022-09-21T12:32:51.479Z,18.30
2022-09-21T12:35:21.110Z,18.20
2022-09-21T12:37:50.683Z,18.20
2022-09-21T12:40:25.267Z,18.30
2022-09-21T12:43:07.622Z,18.50
2022-09-21T12:45:38.391Z,18.50
2022-09-21T12:48:14.387Z,18.30
2022-09-21T12:50:55.036Z,18.50
2022-09-21T12:53:27.626Z,18.70
2022-09-21T12:55:57.041Z,18.50
2022-09-21T12:58:23.745Z,18.10
2022-09-21T13:00:50.398Z,17.60
2022-09-21T13:03:20.789Z,17.10
2022-09-21T13:06:15.829Z,17.00
2022-09-21T13:08:44.570Z,17.00
2022-09-21T13:11:11.288Z,17.10
2022-09-21T13:13:38.284Z,17.00
2022-09-21T13:16:20.875Z,16.90
2022-09-21T13:18:54.938Z,16.80
2022-09-21T13:21:27.946Z,16.70
2022-09-21T13:23:54.641Z,16.90
2022-09-21T13:26:30.967Z,16.70
2022-09-21T13:28:58.241Z,16.70
2022-09-21T13:31:42.181Z,16.70
2022-09-21T13:34:32.285Z,17.10
2022-09-21T13:37:17.760Z,17.50
2022-09-21T13:39:50.429Z,17.80
2022-09-21T13:42:32.148Z,17.90
2022-09-21T13:44:59.621Z,17.70
2022-09-21T13:47:30.727Z,17.20
2022-09-21T13:50:00.669Z,16.80
2022-09-21T13:52:30.089Z,16.50
2022-09-21T13:55:04.617Z,16.40
2022-09-21T13:57:34.275Z,16.50
2022-09-21T14:00:00.894Z,16.50
2022-09-21T14:02:27.563Z,16.70
2022-09-21T14:04:54.630Z,16.90
2022-09-21T14:07:28.861Z,16.80
2022-09-21T14:09:58.040Z,16.70
2022-09-21T14:12:26.903Z,16.40
2022-09-21T14:15:12.519Z,16.40
2022-09-21T14:17:40.553Z,16.30
2022-09-21T14:20:30.148Z,16.10
2022-09-21T14:23:12.622Z,16.10
2022-09-21T14:25:53.108Z,16.30
2022-09-21T14:28:26.848Z,16.60
2022-09-21T14:30:56.389Z,16.80
2022-09-21T14:33:29.194Z,16.90
2022-09-21T14:35:56.319Z,17.10
2022-09-21T14:38:25.234Z,17.20
2022-09-21T14:40:53.118Z,17.20
2022-09-21T14:43:33.815Z,16.80
2022-09-21T14:46:10.236Z,16.40
2022-09-21T14:48:55.805Z,16.20
2022-09-21T14:51:25.127Z,16.10
2022-09-21T14:54:02.983Z,16.00
2022-09-21T14:56:35.379Z,15.90
2022-09-21T14:59:15.551Z,16.10
2022-09-21T15:01:54.119Z,16.10
2022-09-21T15:04:23.612Z,16.00
2022-09-21T15:07:08.660Z,16.10
2022-09-21T15:09:53.727Z,16.30
2022-09-21T15:12:23.658Z,16.50
2022-09-21T15:15:05.518Z,16.40
2022-09-21T15:17:32.375Z,16.40
2022-09-21T15:20:00.915Z,16.20
2022-09-21T15:22:28.286Z,16.00
2022-09-21T15:24:56.489Z,15.90
2022-09-21T15:27:24.620Z,15.70
2022-09-21T15:29:55.499Z,15.70
2022-09-21T15:32:38.296Z,15.60
2022-09-21T15:35:06.736Z,15.60
2022-09-21T15:37:37.165Z,15.50
2022-09-21T15:40:05.320Z,15.50
2022-09-21T15:42:33.448Z,15.50
2022-09-21T15:45:16.800Z,15.40
2022-09-21T15:47:45.208Z,15.30
2022-09-21T15:50:12.684Z,15.20
2022-09-21T15:52:42.610Z,15.10
2022-09-21T15:55:19.803Z,15.20
2022-09-21T15:57:46.793Z,15.20
2022-09-21T16:00:16.289Z,15.20
2022-09-21T16:02:50.673Z,15.20
2022-09-21T16:05:21.004Z,15.30
2022-09-21T16:07:50.112Z,15.30
2022-09-21T16:10:35.555Z,15.40
2022-09-21T16:13:41.078Z,15.30
2022-09-21T16:16:12.229Z,15.40
2022-09-21T16:18:38.855Z,15.30
2022-09-21T16:21:12.169Z,15.20
2022-09-21T16:23:39.427Z,15.20
2022-09-21T16:26:06.534Z,15.20
2022-09-21T16:28:40.420Z,15.10
2022-09-21T16:31:39.257Z,15.10
2022-09-21T16:34:19.136Z,15.00
2022-09-21T16:36:47.258Z,15.00
2022-09-21T16:39:15.927Z,14.90
2022-09-21T16:41:53.715Z,14.90
2022-09-21T16:44:22.722Z,14.90
2022-09-21T16:46:57.094Z,14.70
2022-09-21T16:49:29.963Z,14.70
2022-09-21T16:51:57.323Z,14.70
2022-09-21T16:54:26.027Z,14.60
2022-09-21T16:56:53.810Z,14.50
2022-09-21T16:59:21.940Z,14.40
2022-09-21T17:01:55.369Z,14.30
2022-09-21T17:04:23.781Z,14.20
2022-09-21T17:06:51.024Z,14.10
2022-09-21T17:09:28.391Z,13.90
2022-09-21T17:11:57.788Z,13.70
2022-09-21T17:14:25.384Z,13.60
2022-09-21T17:16:53.487Z,13.50
2022-09-21T17:19:20.851Z,13.30
2022-09-21T17:21:48.073Z,13.20
2022-09-21T17:24:32.756Z,13.10
2022-09-21T17:27:02.752Z,13.00
2022-09-21T17:29:30.956Z,12.80
2022-09-21T17:31:58.439Z,12.60
2022-09-21T17:34:26.926Z,12.30
2022-09-21T17:36:54.069Z,12.10
2022-09-21T17:39:22.113Z,11.80
2022-09-21T17:41:58.107Z,11.60
2022-09-21T17:44:34.168Z,11.40
2022-09-21T17:47:05.093Z,11.20
2022-09-21T17:49:31.852Z,10.90
2022-09-21T17:52:17.231Z,10.70
2022-09-21T17:54:44.092Z,10.50
2022-09-21T17:57:29.668Z,10.20
2022-09-21T18:00:02.583Z,10.00
2022-09-21T18:02:29.571Z,9.90
2022-09-21T18:05:01.156Z,9.80
2022-09-21T18:07:27.962Z,9.70
2022-09-21T18:09:54.680Z,9.50
2022-09-21T18:12:56.771Z,9.40
2022-09-21T18:15:42.170Z,9.30
2022-09-21T18:18:18.738Z,9.10
2022-09-21T18:20:45.449Z,9.00
2022-09-21T18:23:18.938Z,8.90
2022-09-21T18:25:49.251Z,8.80
2022-09-21T18:28:45.799Z,8.70
2022-09-21T18:31:31.259Z,8.60
2022-09-21T18:34:16.916Z,8.50
2022-09-21T18:36:48.794Z,8.40
2022-09-21T18:39:15.368Z,8.30
2022-09-21T18:41:50.412Z,8.20
2022-09-21T18:44:30.212Z,8.10
2022-09-21T18:47:15.558Z,8.00
2022-09-21T18:49:50.165Z,7.90
2022-09-21T18:52:41.895Z,7.80
2022-09-21T18:55:18.630Z,7.80
2022-09-21T18:57:45.495Z,7.70
2022-09-21T19:00:13.299Z,7.60
2022-09-21T19:02:53.528Z,7.50
2022-09-21T19:05:27.507Z,7.40
2022-09-21T19:08:06.212Z,7.40
2022-09-21T19:10:37.037Z,7.30
2022-09-21T19:13:06.439Z,7.20
2022-09-21T19:16:00.820Z,7.20
2022-09-21T19:18:34.313Z,7.10
2022-09-21T19:21:06.958Z,7.10
2022-09-21T19:23:39.487Z,7.00
2022-09-21T19:26:19.672Z,7.00
2022-09-21T19:29:04.832Z,6.80
2022-09-21T19:31:33.058Z,6.80
2022-09-21T19:34:01.940Z,6.80
2022-09-21T19:36:30.362Z,6.70
2022-09-21T19:38:57.113Z,6.70
2022-09-21T19:41:57.038Z,6.70
2022-09-21T19:44:31.222Z,6.60
2022-09-21T19:47:07.851Z,6.50
2022-09-21T19:49:42.827Z,6.50
2022-09-21T19:52:10.732Z,6.40
2022-09-21T19:54:56.625Z,6.30
2022-09-21T19:57:41.650Z,6.30
2022-09-21T20:00:13.251Z,6.20
2022-09-21T20:02:42.954Z,6.20
2022-09-21T20:05:09.684Z,6.10
2022-09-21T20:07:36.281Z,6.00
2022-09-21T20:10:22.236Z,5.90
2022-09-21T20:12:59.409Z,5.90
2022-09-21T20:15:32.740Z,5.90
2022-09-21T20:18:10.339Z,5.90
2022-09-21T20:20:37.475Z,5.90
2022-09-21T20:23:04.448Z,5.90
2022-09-21T20:25:36.558Z,5.80
2022-09-21T20:28:04.022Z,5.80
2022-09-21T20:30:32.595Z,5.70
2022-09-21T20:33:01.086Z,5.70
2022-09-21T20:35:28.845Z,5.70
2022-09-21T20:37:59.873Z,5.70
2022-09-21T20:40:28.992Z,5.60
2022-09-21T20:42:57.037Z,5.50
2022-09-21T20:45:24.232Z,5.50
2022-09-21T20:47:51.633Z,5.50
2022-09-21T20:50:18.555Z,5.40
2022-09-21T20:52:45.377Z,5.40
2022-09-21T20:55:13.603Z,5.40
2022-09-21T20:57:40.481Z,5.30
2022-09-21T21:00:08.294Z,5.30
2022-09-21T21:02:35.679Z,5.30
2022-09-21T21:05:02.348Z,5.20
2022-09-21T21:07:30.766Z,5.20
2022-09-21T21:09:58.708Z,5.20
2022-09-21T21:12:25.913Z,5.20
2022-09-21T21:14:52.574Z,5.10
2022-09-21T21:17:19.174Z,5.10
2022-09-21T21:19:45.792Z,5.10
2022-09-21T21:22:13.351Z,5.00
2022-09-21T21:24:40.041Z,4.90
2022-09-21T21:27:07.593Z,4.90
2022-09-21T21:29:34.328Z,4.90
2022-09-21T21:32:01.171Z,4.90
2022-09-21T21:34:27.823Z,4.90
2022-09-21T21:36:54.532Z,4.90
2022-09-21T21:39:21.120Z,4.70
2022-09-21T21:41:47.692Z,4.70
2022-09-21T21:44:15.710Z,4.70
2022-09-21T21:46:42.815Z,4.70
2022-09-21T21:49:09.544Z,4.70
2022-09-21T21:51:36.195Z,4.60
2022-09-21T21:54:02.865Z,4.60
2022-09-21T21:56:29.694Z,4.60
2022-09-21T21:58:56.622Z,4.60
2022-09-21T22:01:25.419Z,4.60
2022-09-21T22:03:56.121Z,4.50
2022-09-21T22:06:22.832Z,4.50
2022-09-21T22:08:49.668Z,4.40
2022-09-21T22:11:17.627Z,4.40
2022-09-21T22:13:45.437Z,4.40
2022-09-21T22:16:14.416Z,4.40
2022-09-21T22:18:41.882Z,4.30
2022-09-21T22:21:28.775Z,4.30
2022-09-21T22:23:56.567Z,4.30
2022-09-21T22:26:23.871Z,4.30
2022-09-21T22:28:55.017Z,4.30
2022-09-21T22:31:26.767Z,4.30
2022-09-21T22:33:54.145Z,4.30
2022-09-21T22:36:21.747Z,4.30
2022-09-21T22:38:49.422Z,4.30
2022-09-21T22:41:20.665Z,4.20
2022-09-21T22:43:48.083Z,4.20
2022-09-21T22:46:18.194Z,4.10
2022-09-21T22:48:45.503Z,4.10
2022-09-21T22:51:12.885Z,4.10
2022-09-21T22:53:39.770Z,4.10
2022-09-21T22:56:07.543Z,4.10
2022-09-21T22:58:35.237Z,4.10
2022-09-21T23:01:04.684Z,4.10
2022-09-21T23:03:31.702Z,4.10
2022-09-21T23:05:58.737Z,4.10
2022-09-21T23:08:25.997Z,4.10
2022-09-21T23:10:52.638Z,4.10
2022-09-21T23:13:19.243Z,4.00
2022-09-21T23:15:46.163Z,4.00
2022-09-21T23:18:12.832Z,4.00
2022-09-21T23:20:39.444Z,4.00
2022-09-21T23:23:06.054Z,3.90
2022-09-21T23:25:33.079Z,3.90
2022-09-21T23:28:00.468Z,3.80
2022-09-21T23:30:27.181Z,3.80
2022-09-21T23:32:53.783Z,3.80
2022-09-21T23:35:20.444Z,3.80
2022-09-21T23:37:47.012Z,3.70
2022-09-21T23:40:13.754Z,3.70
2022-09-21T23:42:40.375Z,3.70
2022-09-21T23:45:07.383Z,3.70
2022-09-21T23:47:33.959Z,3.70
2022-09-21T23:50:00.538Z,3.70
2022-09-21T23:52:28.544Z,3.70
2022-09-21T23:54:55.159Z,3.60
2022-09-21T23:57:21.758Z,3.60
2022-09-21T23:59:50.087Z,3.60
